KLFI

Langley AFB Airport

Hampton, Virginia, USA
METAR KLFI 110156Z AUTO 36013KT 10SM OVC110 02/M01 A3015 RMK AO2 SLP217 T00221014 $
Observed Flight Rules
Dec-11 @ 01:56 UTC (50 minutes ago) Visual Flight Rules
Wind Visibility Clouds
360° at 13 knots 10 miles
  • Overcast at 11,000' AGL
Temperatures Readings
Current 2°C / 36°F
Dewpoint -1°C / 30°F
Humidity 81%
Altimeter 30.15" Hg
Pressure 1021.7 hPa
Elevation 3
METAR KLFI 110156Z AUTO 36013KT 10SM OVC110 02/M01 A3015 RMK AO2 SLP217 T00221014 $
Observed Flight Rules
Dec-11 @ 01:56 UTC
(50 minutes ago)
VFR
Wind Visibility
360° at 13 knots 10 miles
Clouds
  • Overcast at 11,000' AGL
Temperature Dewpoint
2°C / 36°F -1°C / 30°F
Humidity Altimeter Pressure
81% 30.15" Hg 1021.7 hPa